Time;durP1;ratioP1;P1;durP2;ratioP2;P2;SDS_P1;SDS_P2;PMS_P1;PMS_P2;Temp;Humidity;BMP_temperature;BMP_pressure;BME280_temperature;BME280_humidity;BME280_pressure;Samples;Min_cycle;Max_cycle;Signal;HPM_P1;HPM_P2
2022/06/09 00:02:06;;;;;;;6.90;3.70;;;;;;;16.42;73.08;100429.30;108148;1243;72990;-71
2022/06/09 00:04:39;;;;;;;8.40;4.10;;;;;;;16.40;72.71;100426.98;108259;1244;70498;-71
2022/06/09 00:07:23;;;;;;;10.50;4.30;;;;;;;16.33;72.65;100424.98;108901;1244;72340;-70
2022/06/09 00:10:02;;;;;;;;;;;;;;;16.18;73.32;100424.19;108858;1242;63031;-71
2022/06/09 00:12:33;;;;;;;8.40;3.80;;;;;;;16.08;74.14;100422.90;108161;1243;61111;-73
2022/06/09 00:15:07;;;;;;;5.80;3.70;;;;;;;16.02;74.49;100418.91;108433;1244;73041;-71
2022/06/09 00:17:37;;;;;;;5.10;3.40;;;;;;;15.96;74.87;100419.06;108374;1242;70706;-71
2022/06/09 00:20:09;;;;;;;9.20;3.80;;;;;;;15.89;75.11;100418.39;108313;1243;68654;-73
2022/06/09 00:22:39;;;;;;;7.10;3.90;;;;;;;15.88;75.29;100423.30;108284;1242;70821;-71
2022/06/09 00:25:09;;;;;;;4.40;3.60;;;;;;;15.82;74.70;100426.35;108196;1243;61974;-70
2022/06/09 00:27:38;;;;;;;7.10;3.80;;;;;;;15.75;74.71;100427.08;108182;1243;61353;-74
2022/06/09 00:30:10;;;;;;;5.60;3.70;;;;;;;15.68;75.92;100432.29;107976;1244;72428;-72
2022/06/09 00:32:39;;;;;;;4.90;3.90;;;;;;;15.66;75.94;100432.86;108179;1244;70210;-72
2022/06/09 00:35:09;;;;;;;6.50;3.90;;;;;;;15.62;75.85;100433.56;108084;1244;68491;-73
2022/06/09 00:37:38;;;;;;;5.20;3.70;;;;;;;15.55;76.21;100428.41;108214;1242;71103;-73
2022/06/09 00:40:10;;;;;;;5.60;3.60;;;;;;;15.49;76.34;100430.61;107834;1243;62352;-72
2022/06/09 00:42:39;;;;;;;7.90;4.50;;;;;;;15.44;76.58;100432.84;107930;1244;60311;-72
2022/06/09 00:45:25;;;;;;;6.10;3.80;;;;;;;15.42;76.76;100432.52;108048;1242;73192;-71
2022/06/09 00:48:20;;;;;;;6.30;3.90;;;;;;;15.37;76.67;100431.23;107731;1243;70760;-71
2022/06/09 00:51:04;;;;;;;7.30;4.10;;;;;;;15.32;77.33;100431.70;107727;1243;71499;-69
2022/06/09 00:53:38;;;;;;;6.80;4.30;;;;;;;15.29;77.41;100429.95;107711;1244;74101;-67
2022/06/09 00:56:10;;;;;;;5.20;4.10;;;;;;;15.25;77.48;100432.59;107718;1244;61322;-69
2022/06/09 00:58:44;;;;;;;6.80;4.10;;;;;;;15.20;77.36;100433.27;107927;1243;61329;-70
2022/06/09 01:01:16;;;;;;;4.90;3.70;;;;;;;15.14;77.97;100435.11;107903;1243;74038;-70
2022/06/09 01:04:09;;;;;;;7.00;4.40;;;;;;;15.08;78.32;100437.90;107733;1242;71853;-69
2022/06/09 01:06:48;;;;;;;6.20;4.00;;;;;;;15.08;78.35;100438.40;107881;1244;70310;-72
2022/06/09 01:09:22;;;;;;;6.10;3.80;;;;;;;15.06;78.45;100442.84;109046;1242;74293;-69
2022/06/09 01:11:55;;;;;;;6.40;4.30;;;;;;;15.03;78.48;100446.59;107971;1243;62223;-70
2022/06/09 01:14:27;;;;;;;;;;;;;;;15.01;78.54;100450.27;107673;1244;61295;-69
2022/06/09 01:17:37;;;;;;;7.40;3.80;;;;;;;14.98;78.70;100454.09;107916;1243;74196;-67
2022/06/09 01:20:33;;;;;;;5.30;3.80;;;;;;;14.97;78.82;100456.98;107947;1243;72272;-68
2022/06/09 01:23:26;;;;;;;5.70;4.30;;;;;;;14.94;78.74;100449.43;107901;1243;71245;-67
2022/06/09 01:26:13;;;;;;;7.90;4.40;;;;;;;14.93;78.80;100459.32;107712;1244;74631;-68
2022/06/09 01:28:48;;;;;;;8.50;4.50;;;;;;;14.90;79.00;100461.21;107942;1242;61805;-70
2022/06/09 01:31:45;;;;;;;5.50;3.90;;;;;;;14.87;78.83;100456.77;107945;1242;62548;-72
2022/06/09 01:34:22;;;;;;;9.50;4.90;;;;;;;14.82;79.26;100452.86;107786;1244;74077;-71
2022/06/09 01:37:08;;;;;;;6.60;4.30;;;;;;;14.77;79.59;100454.16;108121;1243;72396;-67
2022/06/09 01:39:54;;;;;;;10.40;4.70;;;;;;;14.73;79.65;100451.17;107987;1243;69394;-70
2022/06/09 01:42:38;;;;;;;25.40;5.80;;;;;;;14.70;79.74;100450.42;107722;1244;71121;-69
2022/06/09 01:45:21;;;;;;;23.10;6.10;;;;;;;14.64;79.89;100452.59;107904;1243;61989;-69
2022/06/09 01:48:04;;;;;;;16.60;5.30;;;;;;;14.58;80.14;100447.58;107728;1243;61930;-70
2022/06/09 01:50:57;;;;;;;16.80;4.90;;;;;;;14.55;80.53;100441.91;107695;1244;71541;-68
2022/06/09 01:53:35;;;;;;;10.90;5.20;;;;;;;14.69;80.00;100447.09;107953;1243;71005;-72
2022/06/09 01:56:11;;;;;;;7.90;4.80;;;;;;;14.70;79.78;100447.80;107966;1243;68414;-71
2022/06/09 01:58:53;;;;;;;7.50;5.50;;;;;;;14.65;80.01;100447.21;107989;1243;74481;-70
2022/06/09 02:01:31;;;;;;;7.50;5.20;;;;;;;14.58;80.44;100448.77;107910;1244;63312;-69
2022/06/09 02:04:06;;;;;;;15.30;6.00;;;;;;;14.54;80.78;100450.38;107893;1242;60722;-67
2022/06/09 02:06:37;;;;;;;10.90;5.60;;;;;;;14.51;80.94;100446.91;107773;1244;73721;-67
2022/06/09 02:09:05;;;;;;;11.30;6.80;;;;;;;14.51;81.12;100447.11;107732;1244;71354;-67
2022/06/09 02:11:53;;;;;;;11.40;6.40;;;;;;;14.50;81.20;100445.95;107665;1244;71482;-68
2022/06/09 02:14:27;;;;;;;11.00;6.50;;;;;;;14.52;81.54;100446.55;107805;1243;73381;-70
2022/06/09 02:16:57;;;;;;;10.70;6.40;;;;;;;14.52;81.37;100448.91;107749;1244;63230;-70
2022/06/09 02:19:27;;;;;;;10.50;5.80;;;;;;;14.51;81.33;100452.38;107874;1243;60091;-70
2022/06/09 02:21:56;;;;;;;12.30;5.40;;;;;;;14.48;81.34;100451.77;107966;1242;74608;-72
2022/06/09 02:24:27;;;;;;;8.20;5.30;;;;;;;14.43;81.38;100452.29;107894;1243;72958;-71
2022/06/09 02:26:56;;;;;;;11.00;5.70;;;;;;;14.41;81.26;100449.96;107773;1242;71247;-70
2022/06/09 02:29:25;;;;;;;9.20;5.80;;;;;;;14.42;81.73;100448.86;107937;1243;74324;-70
2022/06/09 02:31:54;;;;;;;8.30;5.80;;;;;;;14.41;82.00;100449.65;107987;1244;63708;-71
2022/06/09 02:34:23;;;;;;;10.40;5.40;;;;;;;14.42;82.03;100456.74;107917;1243;59191;-69
2022/06/09 02:36:52;;;;;;;9.00;5.30;;;;;;;14.40;81.73;100456.69;107663;1244;71993;-69
2022/06/09 02:39:21;;;;;;;8.60;5.60;;;;;;;14.38;81.75;100455.86;107917;1243;72311;-70
2022/06/09 02:41:49;;;;;;;6.50;5.20;;;;;;;14.37;81.71;100455.98;107999;1243;70962;-70
2022/06/09 02:44:18;;;;;;;8.30;5.40;;;;;;;14.40;81.78;100455.36;107957;1243;73919;-71
2022/06/09 02:46:47;;;;;;;7.10;5.40;;;;;;;14.44;81.42;100455.32;107965;1244;60995;-72
2022/06/09 02:49:17;;;;;;;11.60;5.90;;;;;;;14.46;81.45;100452.48;107974;1241;59247;-67
2022/06/09 02:51:46;;;;;;;15.30;6.00;;;;;;;14.48;81.41;100454.27;108067;1241;72540;-72
2022/06/09 02:54:15;;;;;;;9.40;6.10;;;;;;;14.52;81.85;100457.88;108065;1241;70448;-71
2022/06/09 02:56:44;;;;;;;7.40;6.10;;;;;;;14.57;81.06;100460.02;107722;1241;70610;-71
2022/06/09 02:59:14;;;;;;;9.80;5.60;;;;;;;14.62;81.41;100461.35;107981;1241;74615;-69
2022/06/09 03:01:42;;;;;;;7.50;5.80;;;;;;;14.62;80.88;100465.76;107953;1241;64020;-73
2022/06/09 03:04:11;;;;;;;8.50;5.70;;;;;;;14.61;81.14;100463.25;107963;1243;60955;-70
2022/06/09 03:06:41;;;;;;;10.70;6.30;;;;;;;14.59;81.19;100461.83;107858;1244;72236;-71
2022/06/09 03:09:10;;;;;;;11.50;6.20;;;;;;;14.60;81.52;100457.52;108034;1242;69558;-72
2022/06/09 03:11:39;;;;;;;14.80;6.10;;;;;;;14.65;81.45;100453.92;107850;1244;70932;-70
2022/06/09 03:14:10;;;;;;;10.90;6.30;;;;;;;14.68;81.40;100453.63;107805;1244;73778;-67
2022/06/09 03:16:39;;;;;;;18.00;6.70;;;;;;;14.73;81.55;100451.89;108095;1244;61138;-71
2022/06/09 03:19:08;;;;;;;16.80;6.30;;;;;;;14.81;80.94;100454.85;108162;1242;58873;-70
2022/06/09 03:21:37;;;;;;;17.60;6.90;;;;;;;14.91;79.96;100453.90;108039;1243;73656;-69
2022/06/09 03:24:06;;;;;;;11.20;5.30;;;;;;;14.97;78.64;100451.41;108613;1243;72286;-72
2022/06/09 03:26:36;;;;;;;9.00;5.70;;;;;;;14.98;78.13;100450.38;109118;1244;69086;-76
2022/06/09 03:29:05;;;;;;;12.70;6.40;;;;;;;14.96;78.17;100450.90;108798;1243;71181;-74
2022/06/09 03:31:34;;;;;;;12.50;5.90;;;;;;;15.06;78.17;100445.30;108515;1243;61339;-74
2022/06/09 03:34:03;;;;;;;13.20;5.60;;;;;;;15.21;77.54;100448.40;107949;1244;58944;-76
2022/06/09 03:36:32;;;;;;;11.00;6.60;;;;;;;15.37;76.66;100447.05;108181;1243;73552;-79
2022/06/09 03:39:02;;;;;;;17.10;6.00;;;;;;;15.45;76.41;100448.73;107989;1243;71018;-80
2022/06/09 03:41:30;;;;;;;11.40;5.80;;;;;;;15.59;75.96;100453.48;107945;1244;70375;-86
2022/06/09 03:44:05;;;;;;;9.40;5.80;;;;;;;15.66;75.47;100451.06;107687;1244;75442;-86
2022/06/09 03:46:35;;;;;;;16.50;6.00;;;;;;;15.70;75.42;100453.34;107702;1244;63268;-78
2022/06/09 03:49:04;;;;;;;11.50;6.30;;;;;;;15.75;75.27;100453.94;107593;1244;62563;-82
2022/06/09 03:51:33;;;;;;;14.30;5.70;;;;;;;15.85;75.01;100451.11;107585;1244;74470;-78
2022/06/09 03:54:03;;;;;;;10.20;6.30;;;;;;;16.02;74.49;100451.11;107947;1242;70679;-70
2022/06/09 03:56:32;;;;;;;19.70;6.40;;;;;;;16.20;74.42;100449.09;107770;1243;68171;-78
2022/06/09 03:59:01;;;;;;;13.70;6.60;;;;;;;16.35;74.09;100449.71;107919;1243;74089;-79
2022/06/09 04:01:30;;;;;;;16.10;8.50;;;;;;;16.48;73.88;100452.94;107989;1242;62868;-77
2022/06/09 04:03:59;;;;;;;20.30;7.20;;;;;;;16.56;73.53;100450.35;107931;1244;61683;-76
2022/06/09 04:06:28;;;;;;;17.20;7.40;;;;;;;16.64;73.66;100446.15;107834;1244;74390;-75
2022/06/09 04:08:57;;;;;;;14.90;7.70;;;;;;;16.77;73.48;100448.31;108022;1242;69950;-76
2022/06/09 04:11:26;;;;;;;11.80;7.00;;;;;;;16.88;72.79;100449.20;107800;1244;70102;-74
2022/06/09 04:13:55;;;;;;;12.30;7.50;;;;;;;17.00;72.37;100449.58;107858;1244;71910;-75
2022/06/09 04:16:32;;;;;;;17.40;7.60;;;;;;;17.11;71.83;100447.71;108111;1243;58936;-76
2022/06/09 04:19:05;;;;;;;14.60;7.70;;;;;;;17.24;71.26;100450.42;108187;1241;61170;-74
2022/06/09 04:21:36;;;;;;;14.90;7.80;;;;;;;17.34;71.23;100448.98;107904;1243;74249;-74
2022/06/09 04:24:06;;;;;;;14.30;7.80;;;;;;;17.44;70.76;100448.97;107825;1242;72481;-81
2022/06/09 04:26:38;;;;;;;19.70;8.00;;;;;;;17.53;69.82;100442.24;108013;1244;71154;-79
2022/06/09 04:31:02;;;;;;;19.10;7.30;;;;;;;17.65;69.74;100445.31;104345;1282;600482;-76
2022/06/09 04:33:31;;;;;;;18.40;8.20;;;;;;;17.74;69.29;100447.35;106700;1259;63144;-78
2022/06/09 04:35:59;;;;;;;15.00;8.00;;;;;;;17.86;68.04;100447.27;106994;1254;59853;-79
2022/06/09 04:38:29;;;;;;;15.50;7.00;;;;;;;17.91;67.63;100446.25;107199;1254;72853;-74
2022/06/09 04:40:58;;;;;;;13.40;8.00;;;;;;;17.97;67.55;100444.41;106815;1254;71126;-78
2022/06/09 04:43:27;;;;;;;16.50;8.20;;;;;;;18.08;67.28;100443.77;107442;1251;67305;-73
2022/06/09 04:45:56;;;;;;;14.50;8.20;;;;;;;18.22;66.32;100448.98;107440;1250;73469;-75
2022/06/09 04:48:25;;;;;;;16.30;7.50;;;;;;;18.32;66.17;100450.83;107450;1250;59639;-77
2022/06/09 04:50:54;;;;;;;17.50;9.00;;;;;;;18.53;65.47;100447.02;107613;1250;59124;-79
2022/06/09 04:53:24;;;;;;;16.30;8.00;;;;;;;18.78;64.82;100446.20;107829;1251;70243;-75
2022/06/09 04:55:53;;;;;;;14.80;7.50;;;;;;;18.94;63.78;100443.63;108038;1250;71458;-76
2022/06/09 04:58:21;;;;;;;16.70;8.70;;;;;;;19.11;63.22;100442.36;107568;1250;70217;-78
2022/06/09 05:00:51;;;;;;;19.80;8.30;;;;;;;19.29;62.49;100443.46;107179;1250;74409;-79
2022/06/09 05:03:20;;;;;;;12.30;7.10;;;;;;;19.48;62.78;100441.91;107049;1250;61935;-74
2022/06/09 05:05:50;;;;;;;16.00;7.70;;;;;;;19.71;62.52;100445.88;107167;1251;59592;-77
2022/06/09 05:08:19;;;;;;;17.40;7.40;;;;;;;19.80;60.98;100445.89;107205;1250;62046;-81
2022/06/09 05:10:48;;;;;;;17.40;7.80;;;;;;;19.88;60.74;100445.48;107089;1251;63258;-77
2022/06/09 05:13:19;;;;;;;15.30;7.00;;;;;;;19.99;59.97;100446.40;107146;1250;59939;-78
2022/06/09 05:15:54;;;;;;;11.10;6.70;;;;;;;20.09;59.78;100440.95;107000;1250;73229;-79
2022/06/09 05:18:29;;;;;;;14.30;7.50;;;;;;;20.21;60.69;100439.70;107236;1250;60779;-78
2022/06/09 05:20:59;;;;;;;12.90;6.80;;;;;;;20.28;59.80;100440.80;107117;1250;61263;-76
2022/06/09 05:23:29;;;;;;;15.70;7.80;;;;;;;20.38;60.12;100438.91;107240;1250;72909;-77
2022/06/09 05:26:00;;;;;;;17.80;7.20;;;;;;;20.53;59.97;100438.66;107359;1251;61255;-75
2022/06/09 05:28:30;;;;;;;14.70;7.40;;;;;;;20.64;58.97;100436.27;107363;1250;59229;-78
2022/06/09 05:30:59;;;;;;;14.30;6.50;;;;;;;20.69;58.80;100434.94;107375;1251;72852;-78
2022/06/09 05:33:29;;;;;;;17.90;7.20;;;;;;;20.81;58.11;100430.52;107315;1250;58353;-76
2022/06/09 05:35:59;;;;;;;12.50;6.20;;;;;;;20.92;57.77;100431.15;107380;1250;60597;-76
2022/06/09 05:46:52;;;;;;;16.30;5.60;;;;;;;21.35;57.39;100445.68;107159;1250;73566;-77
2022/06/09 05:49:20;;;;;;;15.10;5.50;;;;;;;21.46;57.07;100452.00;107347;1250;62162;-76
2022/06/09 05:51:51;;;;;;;18.90;5.70;;;;;;;21.54;57.02;100449.80;107289;1250;57967;-75
2022/06/09 05:54:21;;;;;;;13.00;5.40;;;;;;;21.66;56.42;100439.92;107416;1250;62133;-75
2022/06/09 05:56:50;;;;;;;14.90;5.00;;;;;;;21.71;55.63;100441.35;107239;1250;61892;-76
2022/06/09 05:59:19;;;;;;;19.80;5.70;;;;;;;21.86;55.94;100442.30;107268;1250;70533;-76
2022/06/09 06:01:48;;;;;;;15.90;5.90;;;;;;;21.95;55.83;100443.58;107314;1250;62925;-75
2022/06/09 06:04:18;;;;;;;7.00;5.00;;;;;;;22.12;55.98;100438.13;107302;1250;61194;-76
2022/06/09 06:06:47;;;;;;;13.60;5.40;;;;;;;22.24;55.39;100435.70;107316;1250;58957;-75
2022/06/09 06:09:21;;;;;;;12.10;4.60;;;;;;;22.34;55.00;100438.71;107287;1250;61895;-76
2022/06/09 06:11:51;;;;;;;9.20;4.80;;;;;;;22.44;54.55;100435.96;107260;1250;60877;-75
2022/06/09 06:14:23;;;;;;;16.10;5.20;;;;;;;22.56;54.19;100434.69;107277;1250;69757;-79
2022/06/09 06:16:52;;;;;;;11.50;4.80;;;;;;;22.69;53.78;100434.27;107285;1250;74284;-76
2022/06/09 06:19:23;;;;;;;17.00;4.50;;;;;;;22.82;53.66;100430.11;107131;1251;60133;-79
2022/06/09 06:21:53;;;;;;;16.40;4.40;;;;;;;22.97;53.47;100433.04;107325;1250;60943;-80
2022/06/09 06:24:24;;;;;;;12.50;4.40;;;;;;;23.12;52.85;100434.08;107244;1252;71324;-76
2022/06/09 06:26:54;;;;;;;10.40;3.30;;;;;;;23.34;50.71;100432.43;107372;1250;71337;-77
2022/06/09 06:29:25;;;;;;;6.10;3.10;;;;;;;23.57;49.12;100426.23;107282;1251;59662;-77
2022/06/09 06:31:54;;;;;;;6.20;2.90;;;;;;;23.80;47.45;100427.34;107280;1250;73229;-82
2022/06/09 06:34:24;;;;;;;5.30;3.10;;;;;;;23.99;48.08;100423.23;107218;1250;61697;-74
2022/06/09 06:36:53;;;;;;;6.10;3.10;;;;;;;24.08;46.24;100425.41;107368;1250;60745;-79
2022/06/09 06:39:22;;;;;;;4.40;3.30;;;;;;;24.22;46.13;100422.85;107423;1250;72916;-79
2022/06/09 06:41:51;;;;;;;7.80;3.50;;;;;;;24.37;45.17;100416.70;107533;1250;73820;-81
2022/06/09 06:44:19;;;;;;;5.60;3.30;;;;;;;24.57;44.08;100416.82;107447;1250;70084;-77
2022/06/09 06:46:48;;;;;;;6.70;3.40;;;;;;;24.64;42.38;100415.17;107955;1250;64858;-76
2022/06/09 06:49:18;;;;;;;9.50;3.60;;;;;;;24.75;41.47;100413.13;107711;1250;58871;-79
2022/06/09 06:51:49;;;;;;;8.40;3.80;;;;;;;24.89;41.63;100412.00;107428;1250;58939;-79
2022/06/09 06:54:17;;;;;;;7.10;4.00;;;;;;;25.05;41.71;100408.23;107073;1250;73704;-80
2022/06/09 06:56:46;;;;;;;8.20;3.50;;;;;;;25.23;40.92;100405.79;107151;1250;62114;-77
2022/06/09 06:59:15;;;;;;;7.30;3.10;;;;;;;25.40;41.73;100404.57;107297;1250;59242;-78
2022/06/09 07:01:44;;;;;;;6.30;3.50;;;;;;;25.52;40.79;100401.99;107038;1250;72417;-75
2022/06/09 07:04:13;;;;;;;5.70;4.00;;;;;;;25.56;39.91;100399.41;107161;1250;60563;-77
2022/06/09 07:06:43;;;;;;;5.60;3.30;;;;;;;25.66;39.51;100400.81;107082;1250;59015;-76
2022/06/09 07:09:12;;;;;;;12.80;4.20;;;;;;;25.83;39.45;100399.25;107318;1250;71968;-81
2022/06/09 07:11:40;;;;;;;7.70;3.80;;;;;;;25.88;38.99;100395.77;107302;1250;61992;-79
2022/06/09 07:14:09;;;;;;;6.20;4.00;;;;;;;26.00;40.10;100396.17;107120;1250;60029;-75
2022/06/09 07:16:39;;;;;;;5.50;3.60;;;;;;;26.05;39.61;100392.20;107156;1250;73907;-75
2022/06/09 07:19:16;;;;;;;4.90;3.70;;;;;;;26.20;39.66;100384.83;107104;1250;61123;-77
2022/06/09 07:21:44;;;;;;;7.20;3.60;;;;;;;26.33;39.08;100385.60;108909;1251;61475;-75
2022/06/09 07:24:13;;;;;;;6.30;3.30;;;;;;;26.38;39.23;100388.54;107038;1250;72893;-74
2022/06/09 07:26:43;;;;;;;4.40;3.00;;;;;;;26.45;39.12;100383.27;107191;1250;64194;-76
2022/06/09 07:29:12;;;;;;;7.60;3.60;;;;;;;26.55;39.29;100381.19;107341;1250;60846;-78
2022/06/09 07:31:41;;;;;;;6.00;3.60;;;;;;;26.72;38.86;100381.52;107360;1250;73032;-78
2022/06/09 07:34:12;;;;;;;4.20;3.30;;;;;;;26.84;38.60;100376.30;107072;1251;57754;-79
2022/06/09 07:36:43;;;;;;;5.50;3.50;;;;;;;26.86;37.92;100378.82;107077;1251;61578;-77
2022/06/09 07:39:14;;;;;;;8.10;3.60;;;;;;;27.04;37.96;100381.27;107279;1251;72280;-79
2022/06/09 07:41:43;;;;;;;8.20;4.00;;;;;;;27.09;38.21;100384.72;107434;1251;64319;-79
2022/06/09 07:44:12;;;;;;;9.00;3.50;;;;;;;27.22;37.70;100383.20;107330;1250;71254;-78
2022/06/09 07:46:41;;;;;;;7.30;3.70;;;;;;;27.35;37.85;100384.88;107203;1251;64035;-75
2022/06/09 07:49:11;;;;;;;7.50;3.40;;;;;;;27.40;37.42;100388.59;107284;1251;57590;-80
2022/06/09 07:51:40;;;;;;;6.30;3.40;;;;;;;27.32;36.85;100387.05;107296;1250;60451;-77
2022/06/09 07:54:15;;;;;;;7.40;3.20;;;;;;;27.49;37.19;100385.44;107395;1250;61901;-75
2022/06/09 07:56:44;;;;;;;10.10;3.90;;;;;;;27.51;36.44;100387.36;107333;1251;61324;-79
2022/06/09 07:59:13;;;;;;;6.30;3.40;;;;;;;27.60;35.94;100380.89;107318;1250;69766;-80
2022/06/09 08:01:46;;;;;;;5.70;3.50;;;;;;;27.66;36.10;100383.42;107319;1250;74943;-80
2022/06/09 08:04:16;;;;;;;8.10;3.80;;;;;;;27.71;36.06;100380.70;107304;1250;57976;-80
2022/06/09 08:06:45;;;;;;;7.50;3.60;;;;;;;27.88;35.90;100383.33;107437;1250;60466;-78
2022/06/09 08:09:14;;;;;;;7.10;3.40;;;;;;;28.00;35.62;100383.90;107364;1250;72703;-77
2022/06/09 08:11:44;;;;;;;9.40;3.90;;;;;;;28.14;35.07;100382.53;107398;1248;72954;-80
2022/06/09 08:14:14;;;;;;;7.40;3.70;;;;;;;28.29;35.02;100379.67;107406;1250;60435;-79
2022/06/09 08:16:43;;;;;;;7.40;3.30;;;;;;;28.37;34.77;100381.77;107339;1250;73544;-77
2022/06/09 08:19:13;;;;;;;13.10;3.80;;;;;;;28.38;34.80;100376.78;107357;1250;62013;-78
2022/06/09 08:21:42;;;;;;;8.50;3.60;;;;;;;28.22;35.01;100370.61;107444;1250;58528;-79
2022/06/09 08:24:22;;;;;;;6.30;3.40;;;;;;;28.38;34.44;100367.44;107372;1250;63076;-80
2022/06/09 08:26:50;;;;;;;5.90;3.30;;;;;;;28.48;34.07;100369.27;107325;1250;72163;-74
2022/06/09 08:29:25;;;;;;;11.60;4.00;;;;;;;28.57;33.89;100368.33;107277;1251;60428;-77
2022/06/09 08:31:55;;;;;;;7.40;4.10;;;;;;;28.62;33.23;100367.13;107360;1250;62438;-74
2022/06/09 08:34:25;;;;;;;7.10;4.30;;;;;;;28.73;32.26;100372.78;107268;1251;59166;-75
2022/06/09 08:36:54;;;;;;;6.60;3.40;;;;;;;28.95;32.34;100378.88;107308;1250;59454;-77
2022/06/09 08:39:23;;;;;;;7.60;4.30;;;;;;;29.12;32.61;100374.42;107295;1250;62508;-77
2022/06/09 08:42:15;;;;;;;10.60;3.80;;;;;;;29.19;32.29;100373.73;107399;1251;60880;-78
2022/06/09 08:44:55;;;;;;;5.90;3.60;;;;;;;29.26;30.83;100370.80;107449;1250;59309;-78
2022/06/09 08:47:50;;;;;;;7.30;3.10;;;;;;;29.34;29.98;100365.93;107390;1251;63721;-80
2022/06/09 08:50:34;;;;;;;5.10;2.90;;;;;;;29.09;29.50;100375.64;107295;1250;58947;-80
2022/06/09 08:53:10;;;;;;;4.70;2.90;;;;;;;29.24;29.15;100368.34;107211;1250;61004;-78
2022/06/09 08:55:51;;;;;;;5.40;2.90;;;;;;;29.23;29.14;100366.59;107302;1250;73268;-80
2022/06/09 08:58:34;;;;;;;6.70;2.70;;;;;;;29.45;28.61;100363.77;107321;1250;70746;-78
2022/06/09 09:01:12;;;;;;;6.50;3.00;;;;;;;29.61;28.13;100361.09;107360;1250;59235;-78
2022/06/09 09:04:14;;;;;;;4.70;2.60;;;;;;;29.89;28.50;100356.02;107326;1250;74206;-81
2022/06/09 09:07:13;;;;;;;5.10;2.50;;;;;;;30.12;28.00;100356.15;107495;1250;58912;-76
2022/06/09 09:09:43;;;;;;;7.40;2.90;;;;;;;29.91;27.89;100353.73;107331;1250;60525;-80
2022/06/09 09:12:18;;;;;;;5.20;2.80;;;;;;;29.30;28.72;100357.80;107440;1250;74162;-81
2022/06/09 09:16:07;;;;;;;5.60;3.10;;;;;;;29.27;28.68;100354.88;107502;1251;61225;-81
2022/06/09 09:19:00;;;;;;;3.50;2.80;;;;;;;29.93;28.40;100351.50;106280;1259;68898;-80
2022/06/09 09:22:12;;;;;;;6.50;2.50;;;;;;;30.14;27.58;100346.34;106636;1257;74424;-77
2022/06/09 09:25:46;;;;;;;3.50;2.60;;;;;;;30.22;27.91;100342.64;107385;1251;58790;-79
2022/06/09 09:28:49;;;;;;;5.00;2.70;;;;;;;30.08;28.36;100347.59;107354;1251;59113;-80
2022/06/09 09:31:46;;;;;;;6.80;2.90;;;;;;;29.91;28.63;100342.11;107368;1250;72781;-82
2022/06/09 10:10:32;;;;;;;6.10;2.60;;;;;;;29.99;27.25;100324.02;106989;1254;72343;-79
2022/06/09 10:13:31;;;;;;;6.80;2.70;;;;;;;30.15;27.56;100323.94;106992;1257;72562;-79
2022/06/09 10:16:21;;;;;;;8.50;2.90;;;;;;;30.55;27.45;100330.05;106652;1254;524108;-78
2022/06/09 10:19:18;;;;;;;5.80;3.10;;;;;;;30.81;26.37;100328.48;107146;1254;63276;-78
2022/06/09 10:22:22;;;;;;;5.20;2.50;;;;;;;31.17;25.77;100327.70;107142;1253;61932;-82
2022/06/09 10:25:04;;;;;;;5.30;2.40;;;;;;;31.17;25.00;100326.63;107357;1254;59187;-82
2022/06/09 10:27:38;;;;;;;4.70;2.60;;;;;;;31.64;25.09;100329.54;107125;1254;62002;-78
2022/06/09 10:30:49;;;;;;;5.10;2.50;;;;;;;32.05;24.78;100328.60;107486;1254;61648;-82
2022/06/09 10:33:57;;;;;;;7.90;2.60;;;;;;;32.22;24.32;100328.63;107443;1254;59332;-77
2022/06/09 10:36:59;;;;;;;5.60;2.50;;;;;;;32.42;24.03;100320.96;107329;1253;62617;-80
2022/06/09 10:39:58;;;;;;;5.80;2.50;;;;;;;32.04;24.16;100320.42;107437;1254;59126;-77
2022/06/09 10:42:57;;;;;;;3.60;2.60;;;;;;;31.75;24.15;100312.09;107450;1255;59043;-79
2022/06/09 10:45:41;;;;;;;7.00;2.40;;;;;;;31.87;23.98;100310.06;107483;1254;61887;-80
2022/06/09 10:57:45;;;;;;;4.60;2.50;;;;;;;32.65;22.74;100311.92;107242;1254;60690;-83
2022/06/09 11:00:29;;;;;;;5.80;2.60;;;;;;;32.85;23.07;100306.42;107428;1254;59137;-80
2022/06/09 11:03:03;;;;;;;5.20;2.40;;;;;;;32.79;22.92;100302.41;107142;1256;61452;-84
2022/06/09 11:06:09;;;;;;;8.30;2.80;;;;;;;32.52;23.33;100296.98;107172;1254;72224;-81
2022/06/09 11:08:56;;;;;;;8.10;2.60;;;;;;;32.89;23.32;100300.38;107544;1251;61608;-77
2022/06/09 11:12:11;;;;;;;5.70;2.70;;;;;;;32.54;23.04;100303.16;107506;1250;73827;-77
2022/06/09 11:15:02;;;;;;;4.60;2.40;;;;;;;33.28;23.17;100300.70;107192;1251;61256;-80
2022/06/09 11:18:14;;;;;;;4.60;2.40;;;;;;;33.10;23.47;100297.48;107479;1250;59098;-80
2022/06/09 11:21:18;;;;;;;8.80;3.10;;;;;;;32.76;23.98;100299.22;107485;1250;72411;-82
2022/06/09 11:24:22;;;;;;;5.80;3.10;;;;;;;32.55;24.20;100301.91;107480;1251;61228;-76
2022/06/09 11:27:18;;;;;;;5.90;2.70;;;;;;;32.96;23.16;100289.09;106930;1251;70963;-78
2022/06/09 11:30:14;;;;;;;6.20;2.60;;;;;;;32.49;23.94;100281.70;107738;1251;63672;-81
2022/06/09 11:33:20;;;;;;;3.70;2.50;;;;;;;33.37;23.23;100273.18;107439;1251;60245;-80
2022/06/09 16:37:43;;;;;;;8.50;2.30;;;;;;;30.48;31.41;100238.98;104511;1288;599714;-80
2022/06/09 16:40:19;;;;;;;9.10;2.50;;;;;;;30.43;31.77;100237.58;106473;1263;59006;-79
2022/06/09 16:42:48;;;;;;;5.80;2.40;;;;;;;30.64;31.71;100240.67;107183;1256;61319;-74
2022/06/09 16:45:17;;;;;;;6.00;2.40;;;;;;;30.69;31.91;100242.99;107642;1256;72536;-77
2022/06/09 16:47:45;;;;;;;5.40;2.10;;;;;;;31.02;31.06;100239.10;107514;1255;72710;-77
2022/06/09 16:50:17;;;;;;;7.60;2.00;;;;;;;30.75;31.21;100243.77;105891;1256;1715895;-80
2022/06/09 16:52:46;;;;;;;9.00;2.20;;;;;;;30.23;32.05;100241.27;107255;1254;63285;-79
2022/06/09 16:55:16;;;;;;;7.20;2.10;;;;;;;29.75;32.86;100242.27;107240;1253;57699;-79
2022/06/09 16:57:45;;;;;;;3.30;2.10;;;;;;;29.31;33.65;100244.85;107089;1251;61312;-79
2022/06/09 17:00:25;;;;;;;5.90;2.40;;;;;;;29.19;33.78;100246.16;107272;1251;62041;-78
2022/06/09 17:02:54;;;;;;;6.30;2.30;;;;;;;28.94;34.27;100244.77;107388;1251;72287;-80
2022/06/09 17:05:27;;;;;;;8.60;2.40;;;;;;;28.96;34.37;100243.02;107267;1251;70974;-80
2022/06/09 17:07:59;;;;;;;5.70;2.60;;;;;;;29.07;34.33;100242.15;108450;1251;74411;-79
2022/06/09 17:10:33;;;;;;;9.10;2.70;;;;;;;29.19;34.14;100246.48;107244;1251;60919;-82
2022/06/09 17:13:03;;;;;;;8.70;3.50;;;;;;;29.27;33.64;100249.55;107190;1251;61828;-81
2022/06/09 17:15:35;;;;;;;8.20;2.70;;;;;;;29.34;33.33;100248.06;107301;1250;73279;-81
2022/06/09 17:18:05;;;;;;;9.00;3.20;;;;;;;29.54;33.00;100245.75;107400;1250;61251;-78
2022/06/09 17:20:37;;;;;;;5.00;2.50;;;;;;;29.43;33.52;100246.90;107257;1251;59230;-79
2022/06/09 17:23:10;;;;;;;8.80;3.10;;;;;;;29.50;33.27;100247.35;107229;1251;64500;-77
2022/06/09 17:25:39;;;;;;;8.10;2.80;;;;;;;29.48;33.27;100251.02;107067;1251;58863;-81
2022/06/09 17:28:08;;;;;;;5.70;2.50;;;;;;;29.18;34.10;100249.52;107194;1251;60494;-80
2022/06/09 17:30:39;;;;;;;7.00;2.50;;;;;;;29.18;34.09;100249.38;107146;1251;73115;-74
2022/06/09 17:33:09;;;;;;;6.60;2.10;;;;;;;29.34;33.42;100252.25;107205;1250;62339;-78
2022/06/09 17:35:43;;;;;;;5.90;2.20;;;;;;;28.77;34.96;100249.78;107252;1250;70520;-78
2022/06/09 17:38:13;;;;;;;6.30;2.40;;;;;;;28.60;35.18;100256.51;107375;1250;71930;-80
2022/06/09 17:40:43;;;;;;;5.60;2.30;;;;;;;28.36;35.53;100257.32;107313;1250;61863;-75
2022/06/09 17:43:12;;;;;;;5.20;2.10;;;;;;;28.14;35.81;100258.46;107403;1250;60222;-78
2022/06/09 17:45:41;;;;;;;8.20;3.50;;;;;;;27.92;36.07;100259.83;107360;1250;62087;-77
2022/06/09 17:48:11;;;;;;;5.80;2.50;;;;;;;27.65;37.35;100259.59;107348;1250;60958;-74
2022/06/09 17:50:44;;;;;;;7.70;2.50;;;;;;;27.40;37.86;100265.55;107330;1250;59916;-77